sensor_id;sensor_type;location;lat;lon;timestamp;P1;durP1;ratioP1;P2;durP2;ratioP2
13764;SDS011;6953;48.810;9.204;2023-06-14T00:00:45;0.45;;;0.45;;
13764;SDS011;6953;48.810;9.204;2023-06-14T00:03:11;0.50;;;0.50;;
13764;SDS011;6953;48.810;9.204;2023-06-14T00:05:39;0.40;;;0.40;;
13764;SDS011;6953;48.810;9.204;2023-06-14T00:08:08;0.50;;;0.50;;
13764;SDS011;6953;48.810;9.204;2023-06-14T00:10:35;0.43;;;0.43;;
13764;SDS011;6953;48.810;9.204;2023-06-14T00:13:03;0.50;;;0.50;;
13764;SDS011;6953;48.810;9.204;2023-06-14T00:15:30;0.50;;;0.50;;
13764;SDS011;6953;48.810;9.204;2023-06-14T00:17:56;0.50;;;0.50;;
13764;SDS011;6953;48.810;9.204;2023-06-14T00:20:25;0.40;;;0.40;;
13764;SDS011;6953;48.810;9.204;2023-06-14T00:22:51;0.50;;;0.50;;
13764;SDS011;6953;48.810;9.204;2023-06-14T00:25:17;0.55;;;0.55;;
13764;SDS011;6953;48.810;9.204;2023-06-14T00:27:42;0.70;;;0.70;;
13764;SDS011;6953;48.810;9.204;2023-06-14T00:30:07;0.70;;;0.70;;
13764;SDS011;6953;48.810;9.204;2023-06-14T00:32:33;0.77;;;0.77;;
13764;SDS011;6953;48.810;9.204;2023-06-14T00:34:58;0.80;;;0.80;;
13764;SDS011;6953;48.810;9.204;2023-06-14T00:37:24;0.80;;;0.80;;
13764;SDS011;6953;48.810;9.204;2023-06-14T00:39:49;0.60;;;0.60;;
13764;SDS011;6953;48.810;9.204;2023-06-14T00:42:24;0.80;;;0.80;;
13764;SDS011;6953;48.810;9.204;2023-06-14T00:44:50;0.80;;;0.80;;
13764;SDS011;6953;48.810;9.204;2023-06-14T00:47:15;0.70;;;0.70;;
13764;SDS011;6953;48.810;9.204;2023-06-14T00:49:41;0.70;;;0.70;;
13764;SDS011;6953;48.810;9.204;2023-06-14T00:52:06;0.70;;;0.70;;
13764;SDS011;6953;48.810;9.204;2023-06-14T00:54:32;0.80;;;0.80;;
13764;SDS011;6953;48.810;9.204;2023-06-14T00:56:57;0.70;;;0.70;;
13764;SDS011;6953;48.810;9.204;2023-06-14T00:59:23;0.70;;;0.70;;
13764;SDS011;6953;48.810;9.204;2023-06-14T01:01:48;0.70;;;0.70;;
13764;SDS011;6953;48.810;9.204;2023-06-14T01:04:13;0.70;;;0.70;;
13764;SDS011;6953;48.810;9.204;2023-06-14T01:06:57;0.70;;;0.70;;
13764;SDS011;6953;48.810;9.204;2023-06-14T01:09:41;0.77;;;0.77;;
13764;SDS011;6953;48.810;9.204;2023-06-14T01:12:29;0.80;;;0.80;;
13764;SDS011;6953;48.810;9.204;2023-06-14T01:14:59;0.70;;;0.70;;
13764;SDS011;6953;48.810;9.204;2023-06-14T01:17:26;0.70;;;0.70;;
13764;SDS011;6953;48.810;9.204;2023-06-14T01:19:56;0.60;;;0.60;;
13764;SDS011;6953;48.810;9.204;2023-06-14T01:22:27;0.70;;;0.70;;
13764;SDS011;6953;48.810;9.204;2023-06-14T01:24:52;0.70;;;0.70;;
13764;SDS011;6953;48.810;9.204;2023-06-14T01:27:20;0.70;;;0.70;;
13764;SDS011;6953;48.810;9.204;2023-06-14T01:29:48;0.80;;;0.80;;
13764;SDS011;6953;48.810;9.204;2023-06-14T01:32:16;0.70;;;0.70;;
13764;SDS011;6953;48.810;9.204;2023-06-14T01:34:43;0.80;;;0.80;;
13764;SDS011;6953;48.810;9.204;2023-06-14T01:37:08;0.80;;;0.80;;
13764;SDS011;6953;48.810;9.204;2023-06-14T01:39:35;0.82;;;0.82;;
13764;SDS011;6953;48.810;9.204;2023-06-14T01:42:00;0.75;;;0.75;;
13764;SDS011;6953;48.810;9.204;2023-06-14T01:44:26;0.90;;;0.90;;
13764;SDS011;6953;48.810;9.204;2023-06-14T01:46:53;0.80;;;0.80;;
13764;SDS011;6953;48.810;9.204;2023-06-14T01:49:20;0.70;;;0.70;;
13764;SDS011;6953;48.810;9.204;2023-06-14T01:51:45;0.70;;;0.70;;
13764;SDS011;6953;48.810;9.204;2023-06-14T01:54:10;0.80;;;0.80;;
13764;SDS011;6953;48.810;9.204;2023-06-14T01:56:36;0.70;;;0.70;;
13764;SDS011;6953;48.810;9.204;2023-06-14T01:59:01;0.80;;;0.80;;
13764;SDS011;6953;48.810;9.204;2023-06-14T02:01:26;0.70;;;0.70;;
13764;SDS011;6953;48.810;9.204;2023-06-14T02:03:51;0.90;;;0.90;;
13764;SDS011;6953;48.810;9.204;2023-06-14T02:06:18;0.80;;;0.80;;
13764;SDS011;6953;48.810;9.204;2023-06-14T02:08:44;0.80;;;0.80;;
13764;SDS011;6953;48.810;9.204;2023-06-14T02:11:09;0.80;;;0.80;;
13764;SDS011;6953;48.810;9.204;2023-06-14T02:13:35;0.80;;;0.80;;
13764;SDS011;6953;48.810;9.204;2023-06-14T02:16:00;0.80;;;0.80;;
13764;SDS011;6953;48.810;9.204;2023-06-14T02:18:26;0.80;;;0.80;;
13764;SDS011;6953;48.810;9.204;2023-06-14T02:20:52;0.80;;;0.80;;
13764;SDS011;6953;48.810;9.204;2023-06-14T02:23:17;0.70;;;0.70;;
13764;SDS011;6953;48.810;9.204;2023-06-14T02:25:44;0.55;;;0.55;;
13764;SDS011;6953;48.810;9.204;2023-06-14T02:28:11;0.60;;;0.60;;
13764;SDS011;6953;48.810;9.204;2023-06-14T02:30:36;0.70;;;0.70;;
13764;SDS011;6953;48.810;9.204;2023-06-14T02:33:01;0.80;;;0.80;;
13764;SDS011;6953;48.810;9.204;2023-06-14T02:35:28;0.73;;;0.73;;
13764;SDS011;6953;48.810;9.204;2023-06-14T02:37:53;0.88;;;0.88;;
13764;SDS011;6953;48.810;9.204;2023-06-14T02:40:19;0.73;;;0.73;;
13764;SDS011;6953;48.810;9.204;2023-06-14T02:42:45;0.80;;;0.80;;
13764;SDS011;6953;48.810;9.204;2023-06-14T02:45:11;0.80;;;0.80;;
13764;SDS011;6953;48.810;9.204;2023-06-14T02:47:36;0.80;;;0.80;;
13764;SDS011;6953;48.810;9.204;2023-06-14T02:50:01;0.90;;;0.90;;
13764;SDS011;6953;48.810;9.204;2023-06-14T02:52:27;0.80;;;0.80;;
13764;SDS011;6953;48.810;9.204;2023-06-14T02:54:53;0.82;;;0.82;;
13764;SDS011;6953;48.810;9.204;2023-06-14T02:57:19;0.80;;;0.80;;
13764;SDS011;6953;48.810;9.204;2023-06-14T02:59:45;0.80;;;0.80;;
13764;SDS011;6953;48.810;9.204;2023-06-14T03:02:10;0.65;;;0.65;;
13764;SDS011;6953;48.810;9.204;2023-06-14T03:04:35;0.68;;;0.68;;
13764;SDS011;6953;48.810;9.204;2023-06-14T03:07:02;0.50;;;0.50;;
13764;SDS011;6953;48.810;9.204;2023-06-14T03:09:33;0.70;;;0.70;;
13764;SDS011;6953;48.810;9.204;2023-06-14T03:11:59;0.70;;;0.70;;
13764;SDS011;6953;48.810;9.204;2023-06-14T03:14:25;0.60;;;0.60;;
13764;SDS011;6953;48.810;9.204;2023-06-14T03:16:50;0.80;;;0.80;;
13764;SDS011;6953;48.810;9.204;2023-06-14T03:19:16;0.75;;;0.75;;
13764;SDS011;6953;48.810;9.204;2023-06-14T03:21:41;0.80;;;0.80;;
13764;SDS011;6953;48.810;9.204;2023-06-14T03:24:09;0.80;;;0.80;;
13764;SDS011;6953;48.810;9.204;2023-06-14T03:26:34;0.80;;;0.80;;
13764;SDS011;6953;48.810;9.204;2023-06-14T03:29:02;0.80;;;0.80;;
13764;SDS011;6953;48.810;9.204;2023-06-14T03:31:28;0.80;;;0.80;;
13764;SDS011;6953;48.810;9.204;2023-06-14T03:33:57;0.80;;;0.80;;
13764;SDS011;6953;48.810;9.204;2023-06-14T03:36:23;0.70;;;0.70;;
13764;SDS011;6953;48.810;9.204;2023-06-14T03:38:48;0.70;;;0.70;;
13764;SDS011;6953;48.810;9.204;2023-06-14T03:41:13;0.70;;;0.70;;
13764;SDS011;6953;48.810;9.204;2023-06-14T03:43:39;0.60;;;0.60;;
13764;SDS011;6953;48.810;9.204;2023-06-14T03:46:04;0.73;;;0.73;;
13764;SDS011;6953;48.810;9.204;2023-06-14T03:48:29;0.70;;;0.70;;
13764;SDS011;6953;48.810;9.204;2023-06-14T03:50:55;0.80;;;0.80;;
13764;SDS011;6953;48.810;9.204;2023-06-14T03:53:21;0.60;;;0.60;;
13764;SDS011;6953;48.810;9.204;2023-06-14T03:55:48;0.80;;;0.80;;
13764;SDS011;6953;48.810;9.204;2023-06-14T03:58:15;0.70;;;0.70;;
13764;SDS011;6953;48.810;9.204;2023-06-14T04:00:40;0.70;;;0.70;;
13764;SDS011;6953;48.810;9.204;2023-06-14T04:03:06;0.70;;;0.70;;
13764;SDS011;6953;48.810;9.204;2023-06-14T04:05:31;0.80;;;0.80;;
13764;SDS011;6953;48.810;9.204;2023-06-14T04:07:57;0.80;;;0.80;;
13764;SDS011;6953;48.810;9.204;2023-06-14T04:10:23;0.80;;;0.80;;
13764;SDS011;6953;48.810;9.204;2023-06-14T04:12:49;0.70;;;0.70;;
13764;SDS011;6953;48.810;9.204;2023-06-14T04:15:15;0.70;;;0.70;;
13764;SDS011;6953;48.810;9.204;2023-06-14T04:17:41;0.60;;;0.60;;
13764;SDS011;6953;48.810;9.204;2023-06-14T04:20:06;0.60;;;0.60;;
13764;SDS011;6953;48.810;9.204;2023-06-14T04:22:34;0.70;;;0.70;;
13764;SDS011;6953;48.810;9.204;2023-06-14T04:25:01;0.60;;;0.60;;
13764;SDS011;6953;48.810;9.204;2023-06-14T04:27:27;0.50;;;0.50;;
13764;SDS011;6953;48.810;9.204;2023-06-14T04:29:53;0.50;;;0.50;;
13764;SDS011;6953;48.810;9.204;2023-06-14T04:32:28;0.60;;;0.60;;
13764;SDS011;6953;48.810;9.204;2023-06-14T04:34:58;0.70;;;0.70;;
13764;SDS011;6953;48.810;9.204;2023-06-14T04:37:26;0.68;;;0.68;;
13764;SDS011;6953;48.810;9.204;2023-06-14T04:39:53;0.60;;;0.60;;
13764;SDS011;6953;48.810;9.204;2023-06-14T04:42:20;0.60;;;0.60;;
13764;SDS011;6953;48.810;9.204;2023-06-14T04:44:50;0.60;;;0.60;;
13764;SDS011;6953;48.810;9.204;2023-06-14T04:47:16;0.60;;;0.60;;
13764;SDS011;6953;48.810;9.204;2023-06-14T04:49:42;0.60;;;0.60;;
13764;SDS011;6953;48.810;9.204;2023-06-14T04:52:07;0.50;;;0.50;;
13764;SDS011;6953;48.810;9.204;2023-06-14T04:54:35;0.50;;;0.50;;
13764;SDS011;6953;48.810;9.204;2023-06-14T04:57:02;0.60;;;0.60;;
13764;SDS011;6953;48.810;9.204;2023-06-14T04:59:29;0.57;;;0.57;;
13764;SDS011;6953;48.810;9.204;2023-06-14T05:01:58;0.60;;;0.60;;
13764;SDS011;6953;48.810;9.204;2023-06-14T05:04:25;0.60;;;0.60;;
13764;SDS011;6953;48.810;9.204;2023-06-14T05:06:51;0.50;;;0.50;;
13764;SDS011;6953;48.810;9.204;2023-06-14T05:09:19;0.50;;;0.50;;
13764;SDS011;6953;48.810;9.204;2023-06-14T05:11:45;0.50;;;0.50;;
13764;SDS011;6953;48.810;9.204;2023-06-14T05:14:10;0.40;;;0.40;;
13764;SDS011;6953;48.810;9.204;2023-06-14T05:16:36;0.50;;;0.50;;
13764;SDS011;6953;48.810;9.204;2023-06-14T05:19:02;0.40;;;0.40;;
13764;SDS011;6953;48.810;9.204;2023-06-14T05:21:29;0.40;;;0.40;;
13764;SDS011;6953;48.810;9.204;2023-06-14T05:23:55;0.30;;;0.30;;
13764;SDS011;6953;48.810;9.204;2023-06-14T05:26:20;0.40;;;0.40;;
13764;SDS011;6953;48.810;9.204;2023-06-14T05:28:48;0.30;;;0.30;;
13764;SDS011;6953;48.810;9.204;2023-06-14T05:31:14;0.40;;;0.40;;
13764;SDS011;6953;48.810;9.204;2023-06-14T05:33:40;0.40;;;0.40;;
13764;SDS011;6953;48.810;9.204;2023-06-14T05:36:05;0.40;;;0.40;;
13764;SDS011;6953;48.810;9.204;2023-06-14T05:38:30;0.40;;;0.40;;
13764;SDS011;6953;48.810;9.204;2023-06-14T05:40:55;0.38;;;0.38;;
13764;SDS011;6953;48.810;9.204;2023-06-14T05:43:21;0.30;;;0.30;;
13764;SDS011;6953;48.810;9.204;2023-06-14T05:45:46;0.25;;;0.25;;
13764;SDS011;6953;48.810;9.204;2023-06-14T05:48:12;0.30;;;0.30;;
13764;SDS011;6953;48.810;9.204;2023-06-14T05:50:37;0.30;;;0.30;;
13764;SDS011;6953;48.810;9.204;2023-06-14T05:53:02;0.25;;;0.25;;
13764;SDS011;6953;48.810;9.204;2023-06-14T05:55:27;0.30;;;0.30;;
13764;SDS011;6953;48.810;9.204;2023-06-14T05:57:53;0.20;;;0.20;;
13764;SDS011;6953;48.810;9.204;2023-06-14T06:00:18;0.30;;;0.30;;
13764;SDS011;6953;48.810;9.204;2023-06-14T06:02:45;0.20;;;0.20;;
13764;SDS011;6953;48.810;9.204;2023-06-14T06:05:11;0.20;;;0.20;;
13764;SDS011;6953;48.810;9.204;2023-06-14T06:07:37;0.20;;;0.20;;
13764;SDS011;6953;48.810;9.204;2023-06-14T06:10:03;0.20;;;0.20;;
13764;SDS011;6953;48.810;9.204;2023-06-14T06:12:29;0.20;;;0.20;;
13764;SDS011;6953;48.810;9.204;2023-06-14T06:14:55;0.20;;;0.20;;
13764;SDS011;6953;48.810;9.204;2023-06-14T06:17:20;0.20;;;0.20;;
13764;SDS011;6953;48.810;9.204;2023-06-14T06:19:46;0.20;;;0.20;;
13764;SDS011;6953;48.810;9.204;2023-06-14T06:22:11;0.20;;;0.20;;
13764;SDS011;6953;48.810;9.204;2023-06-14T06:24:37;0.20;;;0.20;;
13764;SDS011;6953;48.810;9.204;2023-06-14T06:27:03;0.20;;;0.20;;
13764;SDS011;6953;48.810;9.204;2023-06-14T06:29:28;0.20;;;0.20;;
13764;SDS011;6953;48.810;9.204;2023-06-14T06:31:53;0.20;;;0.20;;
13764;SDS011;6953;48.810;9.204;2023-06-14T06:34:21;0.20;;;0.20;;
13764;SDS011;6953;48.810;9.204;2023-06-14T06:36:46;0.20;;;0.20;;
13764;SDS011;6953;48.810;9.204;2023-06-14T06:39:11;0.20;;;0.20;;
13764;SDS011;6953;48.810;9.204;2023-06-14T06:41:37;0.20;;;0.20;;
13764;SDS011;6953;48.810;9.204;2023-06-14T06:44:04;0.20;;;0.20;;
13764;SDS011;6953;48.810;9.204;2023-06-14T06:46:34;0.20;;;0.20;;
13764;SDS011;6953;48.810;9.204;2023-06-14T06:49:00;0.20;;;0.20;;
13764;SDS011;6953;48.810;9.204;2023-06-14T06:51:25;0.20;;;0.20;;
13764;SDS011;6953;48.810;9.204;2023-06-14T06:53:54;0.20;;;0.20;;
13764;SDS011;6953;48.810;9.204;2023-06-14T06:56:20;0.20;;;0.20;;
13764;SDS011;6953;48.810;9.204;2023-06-14T06:58:48;0.20;;;0.20;;
13764;SDS011;6953;48.810;9.204;2023-06-14T07:01:15;0.20;;;0.20;;
13764;SDS011;6953;48.810;9.204;2023-06-14T07:03:41;0.10;;;0.10;;
13764;SDS011;6953;48.810;9.204;2023-06-14T07:06:06;0.20;;;0.20;;
13764;SDS011;6953;48.810;9.204;2023-06-14T07:08:31;0.20;;;0.20;;
13764;SDS011;6953;48.810;9.204;2023-06-14T07:10:56;0.20;;;0.20;;
13764;SDS011;6953;48.810;9.204;2023-06-14T07:13:22;0.20;;;0.20;;
13764;SDS011;6953;48.810;9.204;2023-06-14T07:15:47;0.20;;;0.20;;
13764;SDS011;6953;48.810;9.204;2023-06-14T07:18:13;0.20;;;0.20;;
13764;SDS011;6953;48.810;9.204;2023-06-14T07:20:38;0.10;;;0.10;;
13764;SDS011;6953;48.810;9.204;2023-06-14T07:23:03;0.20;;;0.20;;
13764;SDS011;6953;48.810;9.204;2023-06-14T07:25:30;0.00;;;0.00;;
13764;SDS011;6953;48.810;9.204;2023-06-14T07:27:55;0.00;;;0.00;;
13764;SDS011;6953;48.810;9.204;2023-06-14T07:30:21;0.03;;;0.03;;
13764;SDS011;6953;48.810;9.204;2023-06-14T07:32:50;0.00;;;0.00;;
13764;SDS011;6953;48.810;9.204;2023-06-14T07:35:16;0.00;;;0.00;;
13764;SDS011;6953;48.810;9.204;2023-06-14T07:37:41;0.00;;;0.00;;
13764;SDS011;6953;48.810;9.204;2023-06-14T07:40:07;0.00;;;0.00;;
13764;SDS011;6953;48.810;9.204;2023-06-14T07:42:36;0.00;;;0.00;;
13764;SDS011;6953;48.810;9.204;2023-06-14T07:45:04;0.10;;;0.10;;
13764;SDS011;6953;48.810;9.204;2023-06-14T07:47:30;0.00;;;0.00;;
13764;SDS011;6953;48.810;9.204;2023-06-14T07:49:56;0.10;;;0.10;;
13764;SDS011;6953;48.810;9.204;2023-06-14T07:52:21;0.00;;;0.00;;
13764;SDS011;6953;48.810;9.204;2023-06-14T07:54:47;0.10;;;0.10;;
13764;SDS011;6953;48.810;9.204;2023-06-14T07:57:12;0.00;;;0.00;;
13764;SDS011;6953;48.810;9.204;2023-06-14T07:59:37;0.00;;;0.00;;
13764;SDS011;6953;48.810;9.204;2023-06-14T08:02:03;0.00;;;0.00;;
13764;SDS011;6953;48.810;9.204;2023-06-14T08:04:29;0.00;;;0.00;;
13764;SDS011;6953;48.810;9.204;2023-06-14T08:06:54;0.00;;;0.00;;
13764;SDS011;6953;48.810;9.204;2023-06-14T08:09:20;0.00;;;0.00;;
13764;SDS011;6953;48.810;9.204;2023-06-14T08:11:45;0.03;;;0.03;;
13764;SDS011;6953;48.810;9.204;2023-06-14T08:14:10;0.00;;;0.00;;
13764;SDS011;6953;48.810;9.204;2023-06-14T08:16:36;0.00;;;0.00;;
13764;SDS011;6953;48.810;9.204;2023-06-14T08:19:02;0.00;;;0.00;;
13764;SDS011;6953;48.810;9.204;2023-06-14T08:21:28;0.00;;;0.00;;
13764;SDS011;6953;48.810;9.204;2023-06-14T08:23:54;0.00;;;0.00;;
13764;SDS011;6953;48.810;9.204;2023-06-14T08:26:22;0.03;;;0.03;;
13764;SDS011;6953;48.810;9.204;2023-06-14T08:28:48;0.00;;;0.00;;
13764;SDS011;6953;48.810;9.204;2023-06-14T08:31:13;0.10;;;0.10;;
13764;SDS011;6953;48.810;9.204;2023-06-14T08:33:38;0.10;;;0.10;;
13764;SDS011;6953;48.810;9.204;2023-06-14T08:36:07;0.10;;;0.10;;
13764;SDS011;6953;48.810;9.204;2023-06-14T08:38:33;0.10;;;0.10;;
13764;SDS011;6953;48.810;9.204;2023-06-14T08:40:58;0.00;;;0.00;;
13764;SDS011;6953;48.810;9.204;2023-06-14T08:43:25;0.10;;;0.10;;
13764;SDS011;6953;48.810;9.204;2023-06-14T08:45:53;0.10;;;0.10;;
13764;SDS011;6953;48.810;9.204;2023-06-14T08:48:21;0.20;;;0.20;;
13764;SDS011;6953;48.810;9.204;2023-06-14T08:50:51;0.20;;;0.20;;
13764;SDS011;6953;48.810;9.204;2023-06-14T08:53:18;0.10;;;0.10;;
13764;SDS011;6953;48.810;9.204;2023-06-14T08:55:44;0.00;;;0.00;;
13764;SDS011;6953;48.810;9.204;2023-06-14T08:58:10;0.00;;;0.00;;
13764;SDS011;6953;48.810;9.204;2023-06-14T09:00:39;0.00;;;0.00;;
13764;SDS011;6953;48.810;9.204;2023-06-14T09:03:06;0.00;;;0.00;;
13764;SDS011;6953;48.810;9.204;2023-06-14T09:05:38;0.00;;;0.00;;
13764;SDS011;6953;48.810;9.204;2023-06-14T09:08:03;0.00;;;0.00;;
13764;SDS011;6953;48.810;9.204;2023-06-14T09:10:30;0.00;;;0.00;;
13764;SDS011;6953;48.810;9.204;2023-06-14T09:12:58;0.00;;;0.00;;
13764;SDS011;6953;48.810;9.204;2023-06-14T09:15:25;0.00;;;0.00;;
13764;SDS011;6953;48.810;9.204;2023-06-14T09:17:51;0.00;;;0.00;;
13764;SDS011;6953;48.810;9.204;2023-06-14T09:20:16;0.00;;;0.00;;
13764;SDS011;6953;48.810;9.204;2023-06-14T09:22:44;0.00;;;0.00;;
13764;SDS011;6953;48.810;9.204;2023-06-14T09:25:11;0.00;;;0.00;;
13764;SDS011;6953;48.810;9.204;2023-06-14T09:27:40;0.00;;;0.00;;
13764;SDS011;6953;48.810;9.204;2023-06-14T09:30:08;0.00;;;0.00;;
13764;SDS011;6953;48.810;9.204;2023-06-14T09:32:38;0.00;;;0.00;;
13764;SDS011;6953;48.810;9.204;2023-06-14T09:35:07;0.00;;;0.00;;
13764;SDS011;6953;48.810;9.204;2023-06-14T09:37:33;0.00;;;0.00;;
13764;SDS011;6953;48.810;9.204;2023-06-14T09:39:59;0.00;;;0.00;;
13764;SDS011;6953;48.810;9.204;2023-06-14T09:42:25;0.00;;;0.00;;
13764;SDS011;6953;48.810;9.204;2023-06-14T09:44:55;0.00;;;0.00;;
13764;SDS011;6953;48.810;9.204;2023-06-14T09:47:21;0.00;;;0.00;;
13764;SDS011;6953;48.810;9.204;2023-06-14T09:49:47;0.00;;;0.00;;
13764;SDS011;6953;48.810;9.204;2023-06-14T09:52:14;0.00;;;0.00;;
13764;SDS011;6953;48.810;9.204;2023-06-14T09:54:42;0.00;;;0.00;;
13764;SDS011;6953;48.810;9.204;2023-06-14T09:57:11;0.00;;;0.00;;
13764;SDS011;6953;48.810;9.204;2023-06-14T09:59:37;0.00;;;0.00;;
13764;SDS011;6953;48.810;9.204;2023-06-14T10:02:07;0.00;;;0.00;;
13764;SDS011;6953;48.810;9.204;2023-06-14T10:04:39;0.00;;;0.00;;
13764;SDS011;6953;48.810;9.204;2023-06-14T10:07:11;0.00;;;0.00;;
13764;SDS011;6953;48.810;9.204;2023-06-14T10:09:37;0.00;;;0.00;;
13764;SDS011;6953;48.810;9.204;2023-06-14T10:12:04;0.00;;;0.00;;
13764;SDS011;6953;48.810;9.204;2023-06-14T10:14:30;0.00;;;0.00;;
13764;SDS011;6953;48.810;9.204;2023-06-14T10:17:00;0.00;;;0.00;;
13764;SDS011;6953;48.810;9.204;2023-06-14T10:22:19;0.00;;;0.00;;
13764;SDS011;6953;48.810;9.204;2023-06-14T10:24:50;0.00;;;0.00;;
13764;SDS011;6953;48.810;9.204;2023-06-14T10:27:16;0.00;;;0.00;;
13764;SDS011;6953;48.810;9.204;2023-06-14T10:32:21;0.00;;;0.00;;
13764;SDS011;6953;48.810;9.204;2023-06-14T10:34:58;0.00;;;0.00;;
13764;SDS011;6953;48.810;9.204;2023-06-14T10:37:25;0.00;;;0.00;;
13764;SDS011;6953;48.810;9.204;2023-06-14T10:39:51;0.00;;;0.00;;
13764;SDS011;6953;48.810;9.204;2023-06-14T10:42:18;0.00;;;0.00;;
13764;SDS011;6953;48.810;9.204;2023-06-14T10:44:51;0.00;;;0.00;;
13764;SDS011;6953;48.810;9.204;2023-06-14T10:50:03;0.00;;;0.00;;
13764;SDS011;6953;48.810;9.204;2023-06-14T10:52:32;0.00;;;0.00;;
13764;SDS011;6953;48.810;9.204;2023-06-14T11:00:14;0.00;;;0.00;;
13764;SDS011;6953;48.810;9.204;2023-06-14T11:05:48;0.00;;;0.00;;
13764;SDS011;6953;48.810;9.204;2023-06-14T11:11:06;0.00;;;0.00;;
13764;SDS011;6953;48.810;9.204;2023-06-14T11:13:33;0.00;;;0.00;;
13764;SDS011;6953;48.810;9.204;2023-06-14T11:15:59;0.00;;;0.00;;
13764;SDS011;6953;48.810;9.204;2023-06-14T11:18:25;0.00;;;0.00;;
13764;SDS011;6953;48.810;9.204;2023-06-14T11:20:52;0.00;;;0.00;;
13764;SDS011;6953;48.810;9.204;2023-06-14T11:23:18;0.00;;;0.00;;
13764;SDS011;6953;48.810;9.204;2023-06-14T11:25:43;0.00;;;0.00;;
13764;SDS011;6953;48.810;9.204;2023-06-14T11:28:08;0.00;;;0.00;;
13764;SDS011;6953;48.810;9.204;2023-06-14T11:30:34;0.00;;;0.00;;
13764;SDS011;6953;48.810;9.204;2023-06-14T11:32:59;0.00;;;0.00;;
13764;SDS011;6953;48.810;9.204;2023-06-14T11:35:25;0.05;;;0.05;;
13764;SDS011;6953;48.810;9.204;2023-06-14T11:37:54;0.10;;;0.10;;
13764;SDS011;6953;48.810;9.204;2023-06-14T11:40:23;0.10;;;0.10;;
13764;SDS011;6953;48.810;9.204;2023-06-14T11:42:49;0.10;;;0.10;;
13764;SDS011;6953;48.810;9.204;2023-06-14T11:45:14;0.10;;;0.10;;
13764;SDS011;6953;48.810;9.204;2023-06-14T11:47:40;0.10;;;0.10;;
13764;SDS011;6953;48.810;9.204;2023-06-14T11:50:06;0.10;;;0.10;;
13764;SDS011;6953;48.810;9.204;2023-06-14T11:52:33;0.10;;;0.10;;
13764;SDS011;6953;48.810;9.204;2023-06-14T11:54:59;0.10;;;0.10;;
13764;SDS011;6953;48.810;9.204;2023-06-14T11:57:25;0.10;;;0.10;;
13764;SDS011;6953;48.810;9.204;2023-06-14T11:59:50;0.10;;;0.10;;
13764;SDS011;6953;48.810;9.204;2023-06-14T12:02:16;0.10;;;0.10;;
13764;SDS011;6953;48.810;9.204;2023-06-14T12:04:43;0.05;;;0.05;;
13764;SDS011;6953;48.810;9.204;2023-06-14T12:07:12;0.10;;;0.10;;
13764;SDS011;6953;48.810;9.204;2023-06-14T12:09:43;0.10;;;0.10;;
13764;SDS011;6953;48.810;9.204;2023-06-14T12:12:28;0.10;;;0.10;;
13764;SDS011;6953;48.810;9.204;2023-06-14T12:14:55;0.10;;;0.10;;
13764;SDS011;6953;48.810;9.204;2023-06-14T12:17:21;0.10;;;0.10;;
13764;SDS011;6953;48.810;9.204;2023-06-14T12:19:48;0.03;;;0.03;;
13764;SDS011;6953;48.810;9.204;2023-06-14T12:22:15;0.08;;;0.08;;
13764;SDS011;6953;48.810;9.204;2023-06-14T12:24:44;0.10;;;0.10;;
13764;SDS011;6953;48.810;9.204;2023-06-14T12:27:10;0.00;;;0.00;;
13764;SDS011;6953;48.810;9.204;2023-06-14T12:29:40;0.10;;;0.10;;
13764;SDS011;6953;48.810;9.204;2023-06-14T12:32:08;0.10;;;0.10;;
13764;SDS011;6953;48.810;9.204;2023-06-14T12:34:34;0.10;;;0.10;;
13764;SDS011;6953;48.810;9.204;2023-06-14T12:36:59;0.10;;;0.10;;
13764;SDS011;6953;48.810;9.204;2023-06-14T12:39:24;0.10;;;0.10;;
13764;SDS011;6953;48.810;9.204;2023-06-14T12:41:50;0.10;;;0.10;;
13764;SDS011;6953;48.810;9.204;2023-06-14T12:44:16;0.10;;;0.10;;
13764;SDS011;6953;48.810;9.204;2023-06-14T12:46:41;0.10;;;0.10;;
13764;SDS011;6953;48.810;9.204;2023-06-14T12:49:08;0.10;;;0.10;;
13764;SDS011;6953;48.810;9.204;2023-06-14T12:51:35;0.10;;;0.10;;
13764;SDS011;6953;48.810;9.204;2023-06-14T12:54:01;0.10;;;0.10;;
13764;SDS011;6953;48.810;9.204;2023-06-14T12:56:26;0.10;;;0.10;;
13764;SDS011;6953;48.810;9.204;2023-06-14T12:58:52;0.10;;;0.10;;
13764;SDS011;6953;48.810;9.204;2023-06-14T13:01:17;0.10;;;0.10;;
13764;SDS011;6953;48.810;9.204;2023-06-14T13:03:43;0.10;;;0.10;;
13764;SDS011;6953;48.810;9.204;2023-06-14T13:06:08;0.10;;;0.10;;
13764;SDS011;6953;48.810;9.204;2023-06-14T13:08:33;0.10;;;0.10;;
13764;SDS011;6953;48.810;9.204;2023-06-14T13:10:58;0.10;;;0.10;;
13764;SDS011;6953;48.810;9.204;2023-06-14T13:13:24;0.10;;;0.10;;
13764;SDS011;6953;48.810;9.204;2023-06-14T13:15:49;0.03;;;0.03;;
13764;SDS011;6953;48.810;9.204;2023-06-14T13:18:15;0.10;;;0.10;;
13764;SDS011;6953;48.810;9.204;2023-06-14T13:20:41;0.08;;;0.08;;
13764;SDS011;6953;48.810;9.204;2023-06-14T13:23:07;0.10;;;0.10;;
13764;SDS011;6953;48.810;9.204;2023-06-14T13:25:34;0.10;;;0.10;;
13764;SDS011;6953;48.810;9.204;2023-06-14T13:27:59;0.10;;;0.10;;
13764;SDS011;6953;48.810;9.204;2023-06-14T13:30:25;0.00;;;0.00;;
13764;SDS011;6953;48.810;9.204;2023-06-14T13:32:50;0.10;;;0.10;;
13764;SDS011;6953;48.810;9.204;2023-06-14T13:35:17;0.10;;;0.10;;
13764;SDS011;6953;48.810;9.204;2023-06-14T13:37:43;0.10;;;0.10;;
13764;SDS011;6953;48.810;9.204;2023-06-14T13:40:08;0.10;;;0.10;;
13764;SDS011;6953;48.810;9.204;2023-06-14T13:42:34;0.10;;;0.10;;
13764;SDS011;6953;48.810;9.204;2023-06-14T13:45:00;0.10;;;0.10;;
13764;SDS011;6953;48.810;9.204;2023-06-14T13:47:26;0.10;;;0.10;;
13764;SDS011;6953;48.810;9.204;2023-06-14T13:49:51;0.10;;;0.10;;
13764;SDS011;6953;48.810;9.204;2023-06-14T13:52:17;0.10;;;0.10;;
13764;SDS011;6953;48.810;9.204;2023-06-14T13:54:42;0.10;;;0.10;;
13764;SDS011;6953;48.810;9.204;2023-06-14T13:57:08;0.10;;;0.10;;
13764;SDS011;6953;48.810;9.204;2023-06-14T13:59:34;0.10;;;0.10;;
13764;SDS011;6953;48.810;9.204;2023-06-14T14:01:59;0.10;;;0.10;;
13764;SDS011;6953;48.810;9.204;2023-06-14T14:04:25;0.10;;;0.10;;
13764;SDS011;6953;48.810;9.204;2023-06-14T14:06:51;0.10;;;0.10;;
13764;SDS011;6953;48.810;9.204;2023-06-14T14:09:16;0.10;;;0.10;;
13764;SDS011;6953;48.810;9.204;2023-06-14T14:11:42;0.10;;;0.10;;
13764;SDS011;6953;48.810;9.204;2023-06-14T14:14:07;0.10;;;0.10;;
13764;SDS011;6953;48.810;9.204;2023-06-14T14:16:33;0.10;;;0.10;;
13764;SDS011;6953;48.810;9.204;2023-06-14T14:18:59;0.20;;;0.20;;
13764;SDS011;6953;48.810;9.204;2023-06-14T14:21:25;0.10;;;0.10;;
13764;SDS011;6953;48.810;9.204;2023-06-14T14:23:50;0.13;;;0.13;;
13764;SDS011;6953;48.810;9.204;2023-06-14T14:26:16;0.20;;;0.20;;
13764;SDS011;6953;48.810;9.204;2023-06-14T14:28:41;0.20;;;0.20;;
13764;SDS011;6953;48.810;9.204;2023-06-14T14:31:06;0.15;;;0.15;;
13764;SDS011;6953;48.810;9.204;2023-06-14T14:33:32;0.20;;;0.20;;
13764;SDS011;6953;48.810;9.204;2023-06-14T14:35:57;0.10;;;0.10;;
13764;SDS011;6953;48.810;9.204;2023-06-14T14:38:22;0.10;;;0.10;;
13764;SDS011;6953;48.810;9.204;2023-06-14T14:40:48;0.00;;;0.00;;
13764;SDS011;6953;48.810;9.204;2023-06-14T14:43:13;0.00;;;0.00;;
13764;SDS011;6953;48.810;9.204;2023-06-14T14:45:39;0.00;;;0.00;;
13764;SDS011;6953;48.810;9.204;2023-06-14T14:48:04;0.00;;;0.00;;
13764;SDS011;6953;48.810;9.204;2023-06-14T14:50:30;0.00;;;0.00;;
13764;SDS011;6953;48.810;9.204;2023-06-14T14:52:55;0.00;;;0.00;;
13764;SDS011;6953;48.810;9.204;2023-06-14T14:55:21;0.00;;;0.00;;
13764;SDS011;6953;48.810;9.204;2023-06-14T14:57:46;0.00;;;0.00;;
13764;SDS011;6953;48.810;9.204;2023-06-14T15:00:13;0.00;;;0.00;;
13764;SDS011;6953;48.810;9.204;2023-06-14T15:02:38;0.00;;;0.00;;
13764;SDS011;6953;48.810;9.204;2023-06-14T15:05:04;0.00;;;0.00;;
13764;SDS011;6953;48.810;9.204;2023-06-14T15:07:30;0.00;;;0.00;;
13764;SDS011;6953;48.810;9.204;2023-06-14T15:09:56;0.00;;;0.00;;
13764;SDS011;6953;48.810;9.204;2023-06-14T15:12:21;0.00;;;0.00;;
13764;SDS011;6953;48.810;9.204;2023-06-14T15:14:49;0.00;;;0.00;;